Mapledurham 10k and 10 mile 2016
Skip Navigation Links
04 December 2016
HyperLink
Click here for more detailed race data
Page 1 of 5 (239 items)
[1]2345
Pos
Bib No
Fav
Share
Print
Name
Time
Chip Time
Category
Cat Pos
Gender
Gen Pos
Club
Pace
1202Robert CORNEY58:12.558:11.6Top 21Male1READING ROADRUNNERS10.3 m/hr
2270Seb BRIGGS59:44.659:42.9Top 22Male2READING ROADRUNNERS10.0 m/hr
3257Rupert SHUTE 1:02:05.61:02:03.7Under 401Male3READING ROAD RUNNERS 9.7 m/hr
481Laurence MILES1:02:16.11:02:14.040-491Male4  9.6 m/hr
5176Stephen RIDLEY1:02:27.91:02:26.0Under 402Male5  9.6 m/hr
651Andy GODDARD1:02:37.01:02:35.7Under 403Male6BASINGSTOKE AND MID HANTS 9.6 m/hr
7219Colin SEYMOUR1:02:50.41:02:48.5Under 404Male7  9.5 m/hr
8232Neil HART1:04:10.41:04:08.7Under 405Male8  9.3 m/hr
9283Chris SHANNON1:04:13.01:04:11.1Under 406Male9  9.3 m/hr
10160Mark FERGUSON1:04:37.01:04:35.040-492Male10  9.3 m/hr
11135Sean PAYNTER1:06:22.11:06:19.5Under 407Male11  9.0 m/hr
1222Ben WHALLEY1:06:48.91:06:47.540-493Male12READING ROADRUNNERS 9.0 m/hr
13261Jon HEANEY1:07:38.31:07:35.9Under 408Male13  8.9 m/hr
14282Clark SCHOFIELD1:08:03.71:08:01.240-494Male14HILLINGDON TRIATHLETES 8.8 m/hr
15180Ryan MORRIS1:08:27.81:08:23.0Under 409Male15COMPTON HARRIERS 8.8 m/hr
1620Simon FREEMAN1:08:39.91:08:35.140-495Male16  8.7 m/hr
17185Andy MORGAN1:08:49.81:08:48.240-496Male17READING ROADRUNNERS 8.7 m/hr
1839Ian GOSLING1:08:57.61:08:52.040-497Male18TRI2O 8.7 m/hr
19260Patrick CONNORS1:09:31.01:09:18.6Under 4010Male19  8.6 m/hr
20148Graham STENT1:09:33.01:09:31.340-498Male20NEWBURY ATHLETICS CLUB 8.6 m/hr
21105Nikki GRAY1:09:51.81:09:47.4Top 21Female1READING ROADRUNNERS 8.6 m/hr
22101Stuart BRADBURN1:10:18.11:10:13.540-499Male21  8.5 m/hr
23265James KEEBLE1:10:35.31:10:32.9Under 4011Male22  8.5 m/hr
2456Mark DAVIDSON1:10:43.31:10:37.5Under 4012Male23  8.5 m/hr
2596Nick ONSLOW1:10:44.61:10:42.540-4910Male24BRAMLEY TRAIL RUNNERS 8.5 m/hr
26127Sean STEWART1:10:46.41:10:44.450-591Male25  8.5 m/hr
27165Chris SAYERS1:10:58.51:10:53.440-4911Male26  8.5 m/hr
28153Mireille COOK1:11:02.21:10:56.0Top 22Female2TEAM KENNET 8.4 m/hr
29235Sam HUSBANDS1:11:17.31:11:13.9Under 4013Male27  8.4 m/hr
30220Richard COATES1:11:23.21:11:19.4Under 4014Male28TRI2O 8.4 m/hr
31284Simon CLARIDGE1:11:30.51:11:27.850-592Male29HILLINGDON AC 8.4 m/hr
3286Chris PAUL1:11:36.41:11:11.940-4912Male30BURGHFIELD RUNNING CLUB 8.4 m/hr
33206Richard USHER1:12:19.21:12:16.440-4913Male31READING ROADRUNNERS 8.3 m/hr
34177Mike LI-ROUSE1:12:30.61:12:25.8Under 4015Male32  8.3 m/hr
352Gary STAPLES1:12:33.91:12:31.2Under 4016Male33  8.3 m/hr
36173John MYLES1:12:59.21:12:55.450-593Male34  8.2 m/hr
3753Harriet CHETTLEBURGH1:13:34.71:13:31.540-491Female3TRI20 8.2 m/hr
38199George ARNOLD1:13:46.81:13:43.6Under 4017Male35  8.1 m/hr
39280Vanessa TAYLOR1:13:57.01:13:53.140-492Female4  8.1 m/hr
40116Michael INGRAM1:14:12.61:14:04.4Under 4018Male36  8.1 m/hr
4195Simon BEST1:14:14.41:14:10.850-594Male37ALCHESTER 8.1 m/hr
42140Justin SIMONS1:14:23.81:14:20.2Under 4019Male38READING ROADRUNNERS 8.1 m/hr
43186David FIDDES1:14:32.31:14:26.050-595Male39READING ROADRUNNERS 8.0 m/hr
44155Jane DAVIES1:14:37.11:14:27.150-591Female5  8.0 m/hr
45269Alexandre PFISTER1:14:46.41:14:40.9Under 4020Male40  8.0 m/hr
46102Steve BLAKE1:14:57.51:14:52.340-4914Male41  8.0 m/hr
47117Richard BRUCE1:15:04.01:14:52.4Under 4021Male42  8.0 m/hr
48241David ARGIBAY1:15:06.81:14:53.4Under 4022Male43  8.0 m/hr
49174Susanne ENHARD1:15:08.91:15:03.050-592Female6COMPTON HARRIES 8.0 m/hr
50271Ian DE VILLIERS1:15:34.51:15:23.940-4915Male44  7.9 m/hr
Page 1 of 5 (239 items)
[1]2345
fb

HyperLink Copyright (c) G Vincent, 2017